Flight Track Log - Related Links

Times and Time Zones

All times are in EDT time to prevent confusion due to time zone crossing. See the UAL395 flight status page for this flight to view local times or setup timezone preferences in your user account.


Time Position Orientation Groundspeed Altitude Reporting Facility
EDT Latitude Longitude Course Direction KTS MPH feet Rate Location/Type
Thu 07:59:35 PM 41.9667 -87.8667 180° South 182 209 1,800  Level Chicago TRACON
Thu 08:00:41 PM 41.8833 -87.8667 180° South 232 267 4,500 2,446 Climbing Chicago TRACON
Thu 08:01:45 PM 41.8178 -87.8250 155° Southeast 271 312 7,100 2,571 Climbing Chicago Center
Thu 08:02:47 PM 41.7447 -87.7831 157° South 281 323 9,900 2,758 Climbing Chicago Center
Thu 08:03:49 PM 41.6600 -87.7356 157° South 301 346 12,800 2,634 Climbing Chicago Center
Thu 08:04:50 PM 41.5772 -87.6892 157° South 315 362 15,300 2,146 Climbing Chicago Center
Thu 08:05:52 PM 41.4986 -87.6283 150° Southeast 329 379 17,200 1,694 Climbing Chicago Center
Thu 08:06:54 PM 41.4167 -87.5569 147° Southeast 336 387 18,800 1,694 Climbing Chicago Center
Thu 08:07:56 PM 41.3364 -87.4761 143° Southeast 357 411 20,700 1,790 Climbing Chicago Center
Thu 08:08:58 PM 41.2544 -87.3947 143° Southeast 362 417 22,500 1,548 Climbing Chicago Center
Thu 08:10:00 PM 41.1739 -87.3103 142° Southeast 368 423 23,900 1,403 Climbing Chicago Center
Thu 08:11:02 PM 41.0767 -87.2636 160° South 377 434 25,400 1,317 Climbing Chicago Center
Thu 08:12:03 PM 40.9736 -87.2781 186° South 372 428 26,600 1,171 Climbing Chicago Center
Thu 08:13:05 PM 40.8639 -87.3603 210° Southwest 373 429 27,800 1,113 Climbing Chicago Center
Thu 08:14:07 PM 40.7697 -87.4289 209° Southwest 383 441 28,900 919 Climbing Chicago Center
Thu 08:15:09 PM 40.6986 -87.5364 229° Southwest 384 442 29,700 532 Climbing Chicago Center
Thu 08:16:11 PM 40.6267 -87.6556 232° Southwest 408 470 30,000 145 Climbing Chicago Center
Thu 08:17:13 PM 40.5503 -87.7850 232° Southwest 438 504 30,000 145 Level Chicago Center
Thu 08:18:15 PM 40.4717 -87.9158 232° Southwest 451 519 30,300 732 Climbing Chicago Center
Thu 08:19:16 PM 40.3894 -88.0497 231° Southwest 462 532 31,500 829 Climbing Chicago Center
Thu 08:20:18 PM 40.3092 -88.1864 232° Southwest 470 541 32,000 242 Climbing Chicago Center
Thu 08:21:20 PM 40.2131 -88.3425 231° Southwest 464 534 32,000 194 Level Chicago Center
Thu 08:22:22 PM 40.1447 -88.4542 231° Southwest 463 533 32,400 919 Climbing Chicago Center
Thu 08:23:24 PM 40.0469 -88.6131 231° Southwest 465 535 33,900 1,210 Climbing Chicago Center
Thu 08:24:26 PM 39.9672 -88.7433 231° Southwest 462 532 34,900 927 Climbing Chicago Center
Thu 08:25:27 PM 39.8850 -88.8744 231° Southwest 462 532 35,800 537 Climbing Chicago Center
Thu 08:26:29 PM 39.8042 -89.0042 231° Southwest 461 531 36,000 97 Climbing Chicago Center
Thu 08:27:31 PM 39.7233 -89.1317 231° Southwest 458 527 36,000  Level Chicago Center
Thu 08:28:33 PM 39.6450 -89.2572 231° Southwest 445 512 36,000  Level Chicago Center
Thu 08:29:36 PM 39.5633 -89.3853 230° Southwest 450 518 36,000  Level Kansas City Center
Thu 08:30:40 PM 39.4847 -89.5128 231° Southwest 452 520 36,000  Level Kansas City Center
Thu 08:31:41 PM 39.3872 -89.6667 231° Southwest 456 525 36,000  Level Kansas City Center
Thu 08:32:44 PM 39.3072 -89.7931 231° Southwest 457 526 36,000  Level Kansas City Center
Thu 08:33:45 PM 39.2236 -89.9206 230° Southwest 460 529 36,000  Level Kansas City Center
Thu 08:34:46 PM 39.1383 -90.0544 231° Southwest 471 542 36,000  Level Kansas City Center
Thu 08:35:47 PM 39.0536 -90.1858 230° Southwest 472 543 36,000  Level Kansas City Center
Thu 08:36:49 PM 38.9564 -90.3381 231° Southwest 473 544 36,000  Level Kansas City Center
Thu 08:37:52 PM 38.8769 -90.4606 230° Southwest 472 543 36,000  Level Kansas City Center
Thu 08:38:53 PM 38.8417 -90.6189 254° West 470 541 36,000  Level Kansas City Center
Thu 08:39:57 PM 38.8222 -90.7811 261° West 464 534 36,000  Level Kansas City Center
Thu 08:40:58 PM 38.8019 -90.9403 261° West 457 526 36,000  Level Kansas City Center
Thu 08:41:59 PM 38.7767 -91.1344 261° West 461 531 36,000  Level Kansas City Center
Thu 08:43:00 PM 38.7547 -91.2956 260° West 461 531 36,000  Level Kansas City Center
Thu 08:44:03 PM 38.7328 -91.4558 260° West 460 529 36,000  Level Kansas City Center
Thu 08:45:05 PM 38.7078 -91.6358 260° West 460 529 36,000  Level Kansas City Center
Thu 08:46:06 PM 38.6881 -91.7881 261° West 441 507 36,000  Level Kansas City Center
Thu 08:47:08 PM 38.6661 -91.9400 260° West 435 501 36,000  Level Kansas City Center
Thu 08:48:11 PM 38.6447 -92.0939 260° West 437 503 36,000  Level Kansas City Center
Thu 08:49:12 PM 38.6214 -92.2469 259° West 437 503 36,000  Level Kansas City Center
Thu 08:50:13 PM 38.5972 -92.4022 259° West 443 510 36,000  Level Kansas City Center
Thu 08:51:16 PM 38.5750 -92.5525 259° West 440 506 36,000  Level Kansas City Center
Thu 08:52:17 PM 38.5489 -92.7353 260° West 439 505 36,000  Level Kansas City Center
Thu 08:53:20 PM 38.5264 -92.8861 259° West 439 505 36,000  Level Kansas City Center
Thu 08:54:21 PM 38.5033 -93.0350 259° West 437 503 36,000  Level Kansas City Center
Thu 08:55:22 PM 38.4797 -93.1836 259° West 432 497 36,000  Level Kansas City Center
Thu 08:56:25 PM 38.4567 -93.3331 259° West 432 497 36,000  Level Kansas City Center
Thu 08:57:26 PM 38.4336 -93.4814 259° West 432 497 36,000  Level Kansas City Center
Thu 08:58:27 PM 38.4058 -93.6592 259° West 429 494 36,000  Level Kansas City Center
Thu 08:59:31 PM 38.3819 -93.8069 258° West 429 494 36,000  Level Kansas City Center
Thu 09:00:32 PM 38.3597 -93.9533 259° West 427 491 36,000  Level Kansas City Center
Thu 09:01:33 PM 38.3344 -94.1075 258° West 427 491 36,000  Level Kansas City Center
Thu 09:02:37 PM 38.3100 -94.2558 258° West 427 491 36,000  Level Kansas City Center
Thu 09:03:38 PM 38.2861 -94.4019 258° West 427 491 36,000  Level Kansas City Center
Thu 09:04:39 PM 38.2617 -94.5508 258° West 427 491 36,000  Level Kansas City Center
Thu 09:05:40 PM 38.2389 -94.7003 259° West 427 491 36,000  Level Kansas City Center
Thu 09:06:44 PM 38.2156 -94.8478 259° West 427 491 36,000  Level Kansas City Center
Thu 09:07:45 PM 38.1883 -95.0214 259° West 423 487 36,000  Level Kansas City Center
Thu 09:08:45 PM 38.1625 -95.1719 258° West 429 494 36,000  Level Kansas City Center
Thu 09:09:49 PM 38.1367 -95.3175 257° West 426 490 36,000  Level Kansas City Center
Thu 09:10:50 PM 38.1122 -95.4619 258° West 424 488 36,000  Level Kansas City Center
Thu 09:11:51 PM 38.0875 -95.6058 258° West 421 484 36,000  Level Kansas City Center
Thu 09:12:52 PM 38.0625 -95.7494 258° West 420 483 36,000  Level Kansas City Center
Thu 09:13:54 PM 38.0372 -95.8914 257° West 418 481 36,000  Level Kansas City Center
Thu 09:14:56 PM 38.0094 -96.0619 258° West 413 475 36,000  Level Kansas City Center
Thu 09:16:00 PM 37.9875 -96.1931 258° West 414 476 36,000  Level Kansas City Center
Thu 09:17:00 PM 37.9639 -96.3358 258° West 414 476 36,000  Level Kansas City Center
Thu 09:18:04 PM 37.9400 -96.4781 258° West 414 476 36,000  Level Kansas City Center
Thu 09:19:04 PM 37.9164 -96.6236 258° West 419 482 36,000  Level Kansas City Center
Thu 09:20:05 PM 37.8825 -96.7956 256° West 421 484 36,000  Level Kansas City Center
Thu 09:21:06 PM 37.8489 -96.9381 253° West 422 486 36,000  Level Kansas City Center
Thu 09:22:09 PM 37.8164 -97.0806 254° West 422 486 36,000  Level Kansas City Center
Thu 09:23:12 PM 37.7839 -97.2228 254° West 422 486 36,000  Level Kansas City Center
Thu 09:24:13 PM 37.7508 -97.3661 254° West 422 486 36,000 -49 Level Kansas City Center
Thu 09:25:15 PM 37.7161 -97.5114 253° West 422 486 35,900 -48 Descending Kansas City Center
Thu 09:26:17 PM 37.6836 -97.6511 254° West 420 483 35,900  Level Kansas City Center
Thu 09:27:17 PM 37.6511 -97.7931 254° West 420 483 35,900 49 Level Kansas City Center
Thu 09:28:20 PM 37.6181 -97.9350 254° West 420 483 36,000 48 Climbing Kansas City Center
Thu 09:29:21 PM 37.5758 -98.1058 253° West 420 483 36,000  Level Kansas City Center
Thu 09:30:21 PM 37.5433 -98.2458 254° West 420 483 36,000  Level Kansas City Center
Thu 09:31:25 PM 37.5094 -98.3864 253° West 420 483 36,000  Level Kansas City Center
Thu 09:32:26 PM 37.4756 -98.5261 253° West 420 483 36,000  Level Kansas City Center
Thu 09:33:27 PM 37.4417 -98.6661 253° West 419 482 36,000  Level Kansas City Center
Thu 09:34:30 PM 37.4075 -98.8053 253° West 419 482 36,000  Level Kansas City Center
Thu 09:35:30 PM 37.3733 -98.9439 253° West 419 482 36,000  Level Kansas City Center
Thu 09:36:31 PM 37.3386 -99.0811 252° West 418 481 36,000 -48 Level Kansas City Center
Thu 09:37:35 PM 37.2972 -99.2450 252° West 414 476 35,900 -48 Descending Kansas City Center
Thu 09:38:35 PM 37.2614 -99.3853 252° West 415 478 35,900 48 Level Kansas City Center
Thu 09:39:39 PM 37.2231 -99.5325 252° West 415 478 36,000 49 Climbing Kansas City Center
Thu 09:40:38 PM 37.1889 -99.6653 252° West 416 479 36,000  Level Kansas City Center
Thu 09:41:42 PM 37.1556 -99.7986 253° West 416 479 36,000  Level Kansas City Center
Thu 09:42:43 PM 37.1144 -99.9564 252° West 420 483 36,000  Level Kansas City Center
Thu 09:43:45 PM 37.0800 -100.0914 252° West 422 486 36,000  Level Kansas City Center
Thu 09:44:46 PM 37.0375 -100.2503 252° West 426 490 36,000  Level Kansas City Center
Thu 09:45:48 PM 37.0017 -100.3869 252° West 426 490 36,000  Level Kansas City Center
Thu 09:46:49 PM 36.9661 -100.5239 252° West 427 491 36,000  Level Kansas City Center
Thu 09:47:50 PM 36.9242 -100.6833 252° West 428 493 36,000  Level Kansas City Center
Thu 09:48:51 PM 36.8872 -100.8183 251° West 428 493 36,000  Level Kansas City Center
Thu 09:49:55 PM 36.8464 -100.9744 252° West 427 491 36,000  Level Kansas City Center
Thu 09:50:56 PM 36.8111 -101.1047 251° West 419 482 36,000  Level Kansas City Center
Thu 09:51:56 PM 36.7711 -101.2533 251° West 410 472 36,000  Level Kansas City Center
Thu 09:52:59 PM 36.7361 -101.3786 251° West 406 467 36,000  Level Kansas City Center
Thu 09:54:01 PM 36.7028 -101.5028 252° West 401 461 36,000  Level Kansas City Center
Thu 09:55:03 PM 36.6633 -101.6469 251° West 397 457 36,000  Level Kansas City Center
Thu 09:56:22 PM 36.6183 -101.8111 251° West 395 455 36,000  Level Albuquerque Center
Thu 09:57:23 PM 36.5797 -101.9478 251° West 395 455 36,000  Level Albuquerque Center
Thu 09:58:25 PM 36.5436 -102.0767 251° West 395 455 36,000  Level Albuquerque Center
Thu 09:59:26 PM 36.5072 -102.2042 250° West 395 455 36,000  Level Albuquerque Center
Thu 10:00:28 PM 36.4711 -102.3342 251° West 395 455 36,000  Level Albuquerque Center
Thu 10:01:29 PM 36.4325 -102.4647 250° West 399 459 36,000  Level Albuquerque Center
Thu 10:02:31 PM 36.3886 -102.6203 251° West 401 461 36,000  Level Albuquerque Center
Thu 10:03:33 PM 36.3503 -102.7506 250° West 401 461 36,000  Level Albuquerque Center
Thu 10:04:34 PM 36.3133 -102.8811 251° West 401 461 36,000  Level Albuquerque Center
Thu 10:05:36 PM 36.2786 -103.0031 251° West 402 463 36,000  Level Albuquerque Center
Thu 10:06:37 PM 36.2342 -103.1564 250° West 402 463 36,000  Level Albuquerque Center
Thu 10:07:39 PM 36.1942 -103.2908 250° West 409 471 36,000  Level Albuquerque Center
Thu 10:08:40 PM 36.1567 -103.4244 251° West 410 472 36,000  Level Albuquerque Center
Thu 10:09:42 PM 36.1169 -103.5569 250° West 410 472 36,000  Level Albuquerque Center
Thu 10:10:43 PM 36.0772 -103.6908 250° West 410 472 36,000  Level Albuquerque Center
Thu 10:11:45 PM 36.0378 -103.8236 250° West 410 472 36,000  Level Albuquerque Center
Thu 10:12:46 PM 35.9961 -103.9567 249° West 410 472 36,000  Level Albuquerque Center
Thu 10:13:48 PM 35.9550 -104.0936 250° West 416 479 36,000  Level Albuquerque Center
Thu 10:14:49 PM 35.9133 -104.2306 249° West 420 483 36,000  Level Albuquerque Center
Thu 10:15:51 PM 35.8644 -104.3919 250° West 425 489 36,000  Level Albuquerque Center
Thu 10:16:52 PM 35.8217 -104.5317 249° West 430 495 36,000  Level Albuquerque Center
Thu 10:17:54 PM 35.7781 -104.6717 249° West 434 499 36,000  Level Albuquerque Center
Thu 10:18:55 PM 35.7347 -104.8125 249° West 435 501 36,000  Level Albuquerque Center
Thu 10:19:56 PM 35.6908 -104.9539 249° West 437 503 36,000  Level Albuquerque Center
Thu 10:20:58 PM 35.6447 -105.0953 248° West 439 505 36,000  Level Albuquerque Center
Thu 10:21:59 PM 35.5997 -105.2372 249° West 441 507 36,000  Level Albuquerque Center
Thu 10:23:01 PM 35.5547 -105.3794 249° West 442 509 36,000  Level Albuquerque Center
Thu 10:24:02 PM 35.5103 -105.5208 249° West 442 509 36,000  Level Albuquerque Center
Thu 10:25:03 PM 35.4636 -105.6667 249° West 442 509 36,000  Level Albuquerque Center
Thu 10:26:05 PM 35.4178 -105.8061 248° West 442 509 36,000  Level Albuquerque Center
Thu 10:27:06 PM 35.3719 -105.9525 249° West 436 502 36,000  Level Albuquerque Center
Thu 10:28:08 PM 35.3281 -106.0858 248° West 436 502 36,000  Level Albuquerque Center
Thu 10:29:09 PM 35.2844 -106.2250 249° West 435 501 36,000  Level Albuquerque Center
Thu 10:30:11 PM 35.2400 -106.3625 248° West 434 499 36,000  Level Albuquerque Center
Thu 10:31:12 PM 35.1950 -106.5000 248° West 435 501 36,000  Level Albuquerque Center
Thu 10:32:13 PM 35.1425 -106.6642 249° West 435 501 36,000  Level Albuquerque Center
Thu 10:33:15 PM 35.0933 -106.8033 247° West 440 506 36,000  Level Albuquerque Center
Thu 10:34:16 PM 35.0469 -106.9461 248° West 434 499 36,000  Level Albuquerque Center
Thu 10:35:18 PM 35.0019 -107.0819 248° West 433 498 36,000  Level Albuquerque Center
Thu 10:36:19 PM 34.9564 -107.2181 248° West 434 499 36,000  Level Albuquerque Center
Thu 10:37:20 PM 34.9078 -107.3642 248° West 434 499 36,000  Level Albuquerque Center
Thu 10:38:22 PM 34.8614 -107.5006 248° West 436 502 36,000  Level Albuquerque Center
Thu 10:39:23 PM 34.8142 -107.6361 247° West 441 507 36,000  Level Albuquerque Center
Thu 10:40:24 PM 34.7689 -107.7725 248° West 441 507 36,000  Level Albuquerque Center
Thu 10:41:26 PM 34.7225 -107.9078 247° West 438 504 36,000  Level Albuquerque Center
Thu 10:42:27 PM 34.6761 -108.0444 248° West 438 504 36,000  Level Albuquerque Center
Thu 10:43:28 PM 34.6239 -108.1911 247° West 438 504 36,000  Level Albuquerque Center
Thu 10:44:30 PM 34.5792 -108.3231 248° West 438 504 36,000  Level Albuquerque Center
Thu 10:45:31 PM 34.5342 -108.4514 247° West 438 504 36,000  Level Albuquerque Center
Thu 10:46:32 PM 34.4819 -108.6019 247° West 435 501 36,000  Level Albuquerque Center
Thu 10:47:33 PM 34.4286 -108.7511 247° West 435 501 36,000  Level Albuquerque Center
Thu 10:48:35 PM 34.3819 -108.8819 247° West 435 501 36,000  Level Albuquerque Center
Thu 10:49:36 PM 34.3353 -109.0144 247° West 440 506 36,000  Level Albuquerque Center
Thu 10:50:37 PM 34.2811 -109.1658 247° West 446 513 36,000  Level Albuquerque Center
Thu 10:51:39 PM 34.2317 -109.3042 247° West 447 514 36,000  Level Albuquerque Center
Thu 10:52:40 PM 34.1828 -109.4394 246° West 452 520 36,000  Level Albuquerque Center
Thu 10:53:41 PM 34.1253 -109.5978 246° West 456 525 36,000 -49 Level Albuquerque Center
Thu 10:54:43 PM 34.0758 -109.7353 247° West 461 531 35,900 -537 Descending Albuquerque Center
Thu 10:55:44 PM 34.0186 -109.8933 246° West 461 531 34,900 -934 Descending Albuquerque Center
Thu 10:56:45 PM 33.9750 -110.0117 246° West 462 532 34,000 -439 Descending Albuquerque Center
Thu 10:57:47 PM 33.9119 -110.1822 246° West 463 533 34,000  Level Albuquerque Center
Thu 10:58:48 PM 33.8589 -110.3250 246° West 464 534 34,000  Level Albuquerque Center
Thu 10:59:49 PM 33.8100 -110.4544 246° West 467 537 34,000  Level Albuquerque Center
Thu 11:00:51 PM 33.7569 -110.5978 246° West 465 535 34,000  Level Albuquerque Center
Thu 11:01:52 PM 33.7067 -110.7364 246° West 464 534 34,000  Level Albuquerque Center
Thu 11:02:53 PM 33.6433 -110.9061 246° West 464 534 34,000  Level Albuquerque Center
Thu 11:03:55 PM 33.5903 -111.0472 246° West 464 534 34,000  Level Albuquerque Center
Thu 11:04:56 PM 33.5367 -111.1886 246° West 464 534 34,000  Level Albuquerque Center
Thu 11:05:58 PM 33.4825 -111.3308 245° Southwest 464 534 34,000  Level Albuquerque Center
Thu 11:06:59 PM 33.4272 -111.4728 245° Southwest 465 535 34,000  Level Albuquerque Center
Thu 11:08:01 PM 33.3717 -111.6144 245° Southwest 466 536 34,000  Level Albuquerque Center
Thu 11:09:02 PM 33.3167 -111.7589 246° West 471 542 34,000  Level Albuquerque Center
Thu 11:10:04 PM 33.2614 -111.8992 245° Southwest 470 541 34,000  Level Albuquerque Center
Thu 11:11:05 PM 33.2061 -112.0417 245° Southwest 469 540 34,000  Level Albuquerque Center
Thu 11:12:07 PM 33.1503 -112.1833 245° Southwest 469 540 34,000 -49 Level Albuquerque Center
Thu 11:13:08 PM 33.0908 -112.3347 245° Southwest 472 543 33,900 -49 Descending Albuquerque Center
Thu 11:14:10 PM 33.0353 -112.4764 245° Southwest 472 543 33,900  Level Albuquerque Center
Thu 11:15:11 PM 32.9789 -112.6175 245° Southwest 473 544 33,900  Level Albuquerque Center
Thu 11:16:13 PM 32.9400 -112.7967 256° West 472 543 33,900  Level Albuquerque Center
Thu 11:17:14 PM 32.9217 -112.9489 262° West 471 542 33,900  Level Albuquerque Center
Thu 11:18:16 PM 32.9003 -113.0989 260° West 471 542 33,900  Level Albuquerque Center
Thu 11:19:18 PM 32.8806 -113.2500 261° West 469 540 33,900  Level Albuquerque Center
Thu 11:20:19 PM 32.8586 -113.4014 260° West 469 540 33,900  Level Albuquerque Center
Thu 11:21:21 PM 32.8358 -113.5519 260° West 469 540 33,900  Level Albuquerque Center
Thu 11:22:08 PM 32.8189 -113.6786 261° West 468 539 33,900  Level Los Angeles Center
Thu 11:23:10 PM 32.7978 -113.8300 261° West 468 539 33,900  Level Los Angeles Center
Thu 11:24:12 PM 32.7758 -114.0125 262° West 468 539 33,900  Level Los Angeles Center
Thu 11:25:14 PM 32.7750 -114.1642 270° West 465 535 33,900  Level Los Angeles Center
Thu 11:26:16 PM 32.7736 -114.3153 269° West 462 532 33,900  Level Los Angeles Center
Thu 11:27:19 PM 32.7708 -114.4658 269° West 459 528 33,900  Level Los Angeles Center
Thu 11:28:20 PM 32.7694 -114.6156 269° West 457 526 33,900  Level Los Angeles Center
Thu 11:29:22 PM 32.7661 -114.7667 269° West 459 528 33,900 -439 Level Los Angeles Center
Thu 11:30:23 PM 32.7622 -114.9161 268° West 457 526 33,000 -1,317 Descending Los Angeles Center
Thu 11:31:25 PM 32.7600 -115.0992 269° West 460 529 31,200 -2,177 Descending Los Angeles Center
Thu 11:32:27 PM 32.7553 -115.2511 268° West 462 532 28,500 -2,516 Descending Los Angeles Center
Thu 11:33:29 PM 32.7531 -115.3972 269° West 451 519 26,000 -2,419 Descending Los Angeles Center
Thu 11:34:31 PM 32.7494 -115.5403 268° West 439 505 23,500 -2,177 Descending Los Angeles Center
Thu 11:35:33 PM 32.7536 -115.6817 272° West 435 501 21,500 -1,887 Descending Los Angeles Center
Thu 11:36:35 PM 32.7569 -115.8194 272° West 423 487 19,600 -2,129 Descending Los Angeles Center
Thu 11:37:37 PM 32.7611 -115.9767 272° West 403 464 17,100 -2,031 Descending Los Angeles Center
Thu 11:38:42 PM 32.7636 -116.1053 271° West 395 455 15,300 -1,694 Descending Los Angeles Center
Thu 11:39:41 PM 32.7667 -116.2319 272° West 388 447 13,600 -1,686 Descending Los Angeles Center
Thu 11:40:43 PM 32.7586 -116.3503 265° West 371 427 11,900 -1,597 Descending Los Angeles Center
Thu 11:41:45 PM 32.7406 -116.4597 259° West 346 398 10,300 -1,258 Descending Los Angeles Center
Thu 11:42:47 PM 32.7258 -116.5578 260° West 319 367 9,300 -919 Descending Los Angeles Center
Thu 11:43:49 PM 32.7131 -116.6486 261° West 296 341 8,400 -1,073 Descending Los Angeles Center
Thu 11:44:50 PM 32.7097 -116.7400 268° West 284 327 7,100 -1,268 Descending Los Angeles Center
Thu 11:45:52 PM 32.7053 -116.8328 267° West 284 327 5,800 -1,511 Descending Los Angeles Center
Thu 11:47:01 PM 32.6833 -116.9500 257° West 261 300 3,800 -1,268 Descending Southern California TRACON
Thu 11:47:55 PM 32.6833 -117.0000 270° West 191 220 3,200 -737 Descending Southern California TRACON
Thu 11:48:55 PM 32.7000 -117.0667 287° West 187 215 2,400 -900 Descending Southern California TRACON
Thu 11:49:55 PM 32.7167 -117.1167 292° West 149 171 1,400 -950 Descending Southern California TRACON
Thu 11:50:55 PM 32.7333 -117.1500 301° West 130 150 500 -465 Descending Southern California TRACON
Thu 11:52:04 PM 32.7353 -117.1958 273° West 150 173 400 -87 Descending Los Angeles Center

Login

Don't have an account? Register now (free) for customized features, flight alerts, and more!